sensor_id;sensor_type;location;lat;lon;timestamp;P1;durP1;ratioP1;P2;durP2;ratioP2
52642;SDS011;38531;53.296;6.614;2023-03-14T00:01:24;16.17;;;2.17;;
52642;SDS011;38531;53.296;6.614;2023-03-14T00:03:50;10.05;;;1.70;;
52642;SDS011;38531;53.296;6.614;2023-03-14T00:06:16;12.15;;;1.65;;
52642;SDS011;38531;53.296;6.614;2023-03-14T00:08:43;13.73;;;2.40;;
52642;SDS011;38531;53.296;6.614;2023-03-14T00:11:13;13.98;;;2.03;;
52642;SDS011;38531;53.296;6.614;2023-03-14T00:13:40;10.65;;;1.60;;
52642;SDS011;38531;53.296;6.614;2023-03-14T00:16:08;14.65;;;2.00;;
52642;SDS011;38531;53.296;6.614;2023-03-14T00:18:35;21.83;;;2.38;;
52642;SDS011;38531;53.296;6.614;2023-03-14T00:21:02;10.02;;;1.98;;
52642;SDS011;38531;53.296;6.614;2023-03-14T00:23:30;16.27;;;2.22;;
52642;SDS011;38531;53.296;6.614;2023-03-14T00:26:00;12.13;;;1.60;;
52642;SDS011;38531;53.296;6.614;2023-03-14T00:28:27;11.32;;;2.45;;
52642;SDS011;38531;53.296;6.614;2023-03-14T00:30:53;13.65;;;1.98;;
52642;SDS011;38531;53.296;6.614;2023-03-14T00:33:19;21.35;;;3.00;;
52642;SDS011;38531;53.296;6.614;2023-03-14T00:35:55;19.17;;;2.20;;
52642;SDS011;38531;53.296;6.614;2023-03-14T00:38:23;11.15;;;2.67;;
52642;SDS011;38531;53.296;6.614;2023-03-14T00:40:49;14.18;;;1.70;;
52642;SDS011;38531;53.296;6.614;2023-03-14T00:43:18;10.50;;;1.23;;
52642;SDS011;38531;53.296;6.614;2023-03-14T00:45:47;14.82;;;2.10;;
52642;SDS011;38531;53.296;6.614;2023-03-14T00:48:13;9.73;;;1.40;;
52642;SDS011;38531;53.296;6.614;2023-03-14T00:50:39;13.10;;;1.77;;
52642;SDS011;38531;53.296;6.614;2023-03-14T00:53:05;10.63;;;1.67;;
52642;SDS011;38531;53.296;6.614;2023-03-14T00:55:31;16.02;;;2.78;;
52642;SDS011;38531;53.296;6.614;2023-03-14T00:58:00;9.27;;;1.45;;
52642;SDS011;38531;53.296;6.614;2023-03-14T01:00:26;11.70;;;2.00;;
52642;SDS011;38531;53.296;6.614;2023-03-14T01:02:52;10.20;;;2.20;;
52642;SDS011;38531;53.296;6.614;2023-03-14T01:05:17;12.43;;;1.90;;
52642;SDS011;38531;53.296;6.614;2023-03-14T01:07:43;12.25;;;1.60;;
52642;SDS011;38531;53.296;6.614;2023-03-14T01:10:11;10.75;;;1.30;;
52642;SDS011;38531;53.296;6.614;2023-03-14T01:12:37;13.55;;;1.58;;
52642;SDS011;38531;53.296;6.614;2023-03-14T01:15:06;12.45;;;1.70;;
52642;SDS011;38531;53.296;6.614;2023-03-14T01:17:32;13.10;;;2.28;;
52642;SDS011;38531;53.296;6.614;2023-03-14T01:19:58;13.32;;;1.63;;
52642;SDS011;38531;53.296;6.614;2023-03-14T01:22:25;9.13;;;1.52;;
52642;SDS011;38531;53.296;6.614;2023-03-14T01:24:50;7.10;;;1.13;;
52642;SDS011;38531;53.296;6.614;2023-03-14T01:27:16;17.33;;;2.42;;
52642;SDS011;38531;53.296;6.614;2023-03-14T01:29:42;12.15;;;1.88;;
52642;SDS011;38531;53.296;6.614;2023-03-14T01:32:08;14.23;;;2.33;;
52642;SDS011;38531;53.296;6.614;2023-03-14T01:34:36;9.15;;;1.40;;
52642;SDS011;38531;53.296;6.614;2023-03-14T01:37:02;10.52;;;2.45;;
52642;SDS011;38531;53.296;6.614;2023-03-14T01:39:28;8.65;;;1.27;;
52642;SDS011;38531;53.296;6.614;2023-03-14T01:41:53;9.45;;;1.10;;
52642;SDS011;38531;53.296;6.614;2023-03-14T01:44:19;12.27;;;1.52;;
52642;SDS011;38531;53.296;6.614;2023-03-14T01:46:45;12.93;;;1.75;;
52642;SDS011;38531;53.296;6.614;2023-03-14T01:49:25;8.00;;;1.80;;
52642;SDS011;38531;53.296;6.614;2023-03-14T01:54:28;15.13;;;3.03;;
52642;SDS011;38531;53.296;6.614;2023-03-14T01:57:14;6.57;;;1.25;;
52642;SDS011;38531;53.296;6.614;2023-03-14T01:59:49;8.15;;;1.13;;
52642;SDS011;38531;53.296;6.614;2023-03-14T02:02:19;18.23;;;1.60;;
52642;SDS011;38531;53.296;6.614;2023-03-14T02:04:45;9.30;;;2.15;;
52642;SDS011;38531;53.296;6.614;2023-03-14T02:07:16;7.40;;;1.33;;
52642;SDS011;38531;53.296;6.614;2023-03-14T02:10:03;7.80;;;1.52;;
52642;SDS011;38531;53.296;6.614;2023-03-14T02:12:30;8.70;;;1.45;;
52642;SDS011;38531;53.296;6.614;2023-03-14T02:14:57;7.97;;;0.85;;
52642;SDS011;38531;53.296;6.614;2023-03-14T02:17:23;14.10;;;1.25;;
52642;SDS011;38531;53.296;6.614;2023-03-14T02:19:59;8.20;;;0.98;;
52642;SDS011;38531;53.296;6.614;2023-03-14T02:23:00;9.00;;;1.05;;
52642;SDS011;38531;53.296;6.614;2023-03-14T02:28:06;9.27;;;0.93;;
52642;SDS011;38531;53.296;6.614;2023-03-14T02:30:32;8.07;;;1.40;;
52642;SDS011;38531;53.296;6.614;2023-03-14T02:33:03;6.68;;;1.02;;
52642;SDS011;38531;53.296;6.614;2023-03-14T02:35:40;11.03;;;1.77;;
52642;SDS011;38531;53.296;6.614;2023-03-14T02:38:19;9.27;;;1.38;;
52642;SDS011;38531;53.296;6.614;2023-03-14T02:40:55;4.70;;;0.80;;
52642;SDS011;38531;53.296;6.614;2023-03-14T02:43:21;5.57;;;0.90;;
52642;SDS011;38531;53.296;6.614;2023-03-14T02:45:47;13.75;;;1.25;;
52642;SDS011;38531;53.296;6.614;2023-03-14T02:48:21;5.22;;;2.08;;
52642;SDS011;38531;53.296;6.614;2023-03-14T02:50:48;4.35;;;0.85;;
52642;SDS011;38531;53.296;6.614;2023-03-14T02:53:18;5.97;;;0.90;;
52642;SDS011;38531;53.296;6.614;2023-03-14T02:55:50;7.28;;;1.10;;
52642;SDS011;38531;53.296;6.614;2023-03-14T02:58:16;6.70;;;0.90;;
52642;SDS011;38531;53.296;6.614;2023-03-14T03:00:43;8.00;;;0.93;;
52642;SDS011;38531;53.296;6.614;2023-03-14T03:03:09;4.70;;;0.80;;
52642;SDS011;38531;53.296;6.614;2023-03-14T03:05:35;10.75;;;1.10;;
52642;SDS011;38531;53.296;6.614;2023-03-14T03:08:00;8.32;;;1.05;;
52642;SDS011;38531;53.296;6.614;2023-03-14T03:10:27;4.05;;;0.93;;
52642;SDS011;38531;53.296;6.614;2023-03-14T03:12:53;5.70;;;0.70;;
52642;SDS011;38531;53.296;6.614;2023-03-14T03:15:19;4.93;;;1.08;;
52642;SDS011;38531;53.296;6.614;2023-03-14T03:17:44;6.85;;;1.00;;
52642;SDS011;38531;53.296;6.614;2023-03-14T03:20:10;7.78;;;1.23;;
52642;SDS011;38531;53.296;6.614;2023-03-14T03:22:38;10.52;;;2.22;;
52642;SDS011;38531;53.296;6.614;2023-03-14T03:25:05;11.68;;;1.30;;
52642;SDS011;38531;53.296;6.614;2023-03-14T03:27:32;8.00;;;1.50;;
52642;SDS011;38531;53.296;6.614;2023-03-14T03:29:59;6.63;;;1.17;;
52642;SDS011;38531;53.296;6.614;2023-03-14T03:32:25;6.10;;;1.05;;
52642;SDS011;38531;53.296;6.614;2023-03-14T03:34:51;6.25;;;1.48;;
52642;SDS011;38531;53.296;6.614;2023-03-14T03:37:17;7.20;;;0.98;;
52642;SDS011;38531;53.296;6.614;2023-03-14T03:39:43;8.25;;;1.48;;
52642;SDS011;38531;53.296;6.614;2023-03-14T03:42:09;11.15;;;1.50;;
52642;SDS011;38531;53.296;6.614;2023-03-14T03:44:34;3.85;;;1.13;;
52642;SDS011;38531;53.296;6.614;2023-03-14T03:47:00;9.77;;;1.10;;
52642;SDS011;38531;53.296;6.614;2023-03-14T03:49:30;9.68;;;1.60;;
52642;SDS011;38531;53.296;6.614;2023-03-14T03:51:56;7.93;;;1.35;;
52642;SDS011;38531;53.296;6.614;2023-03-14T03:54:22;6.53;;;1.20;;
52642;SDS011;38531;53.296;6.614;2023-03-14T03:56:48;11.35;;;1.40;;
52642;SDS011;38531;53.296;6.614;2023-03-14T03:59:14;10.23;;;1.10;;
52642;SDS011;38531;53.296;6.614;2023-03-14T04:01:40;5.07;;;1.10;;
52642;SDS011;38531;53.296;6.614;2023-03-14T04:04:05;8.88;;;1.30;;
52642;SDS011;38531;53.296;6.614;2023-03-14T04:06:31;8.57;;;1.23;;
52642;SDS011;38531;53.296;6.614;2023-03-14T04:08:57;9.88;;;1.38;;
52642;SDS011;38531;53.296;6.614;2023-03-14T04:11:23;9.70;;;1.65;;
52642;SDS011;38531;53.296;6.614;2023-03-14T04:13:49;5.82;;;0.90;;
52642;SDS011;38531;53.296;6.614;2023-03-14T04:16:19;7.93;;;1.60;;
52642;SDS011;38531;53.296;6.614;2023-03-14T04:18:47;11.15;;;1.80;;
52642;SDS011;38531;53.296;6.614;2023-03-14T04:21:13;10.98;;;1.48;;
52642;SDS011;38531;53.296;6.614;2023-03-14T04:23:40;8.35;;;2.03;;
52642;SDS011;38531;53.296;6.614;2023-03-14T04:26:06;9.63;;;1.40;;
52642;SDS011;38531;53.296;6.614;2023-03-14T04:28:32;11.65;;;1.98;;
52642;SDS011;38531;53.296;6.614;2023-03-14T04:30:57;8.27;;;1.05;;
52642;SDS011;38531;53.296;6.614;2023-03-14T04:33:23;11.38;;;1.52;;
52642;SDS011;38531;53.296;6.614;2023-03-14T04:35:52;5.53;;;1.48;;
52642;SDS011;38531;53.296;6.614;2023-03-14T04:38:19;11.45;;;2.47;;
52642;SDS011;38531;53.296;6.614;2023-03-14T04:40:45;14.57;;;1.90;;
52642;SDS011;38531;53.296;6.614;2023-03-14T04:43:11;9.27;;;1.80;;
52642;SDS011;38531;53.296;6.614;2023-03-14T04:45:37;9.68;;;1.42;;
52642;SDS011;38531;53.296;6.614;2023-03-14T04:48:06;12.55;;;2.00;;
52642;SDS011;38531;53.296;6.614;2023-03-14T04:50:32;13.98;;;2.22;;
52642;SDS011;38531;53.296;6.614;2023-03-14T04:52:58;8.15;;;1.92;;
52642;SDS011;38531;53.296;6.614;2023-03-14T04:55:23;8.10;;;2.40;;
52642;SDS011;38531;53.296;6.614;2023-03-14T04:57:49;10.88;;;2.15;;
52642;SDS011;38531;53.296;6.614;2023-03-14T05:00:15;7.63;;;1.80;;
52642;SDS011;38531;53.296;6.614;2023-03-14T05:02:43;3.97;;;1.42;;
52642;SDS011;38531;53.296;6.614;2023-03-14T05:08:50;6.28;;;1.52;;
52642;SDS011;38531;53.296;6.614;2023-03-14T05:11:16;9.02;;;2.38;;
52642;SDS011;38531;53.296;6.614;2023-03-14T05:13:41;12.82;;;2.85;;
52642;SDS011;38531;53.296;6.614;2023-03-14T05:16:08;7.22;;;2.08;;
52642;SDS011;38531;53.296;6.614;2023-03-14T05:18:35;7.22;;;3.10;;
52642;SDS011;38531;53.296;6.614;2023-03-14T05:21:01;3.42;;;1.60;;
52642;SDS011;38531;53.296;6.614;2023-03-14T05:23:27;5.78;;;1.60;;
52642;SDS011;38531;53.296;6.614;2023-03-14T05:25:53;5.20;;;1.70;;
52642;SDS011;38531;53.296;6.614;2023-03-14T05:28:19;6.57;;;1.80;;
52642;SDS011;38531;53.296;6.614;2023-03-14T05:30:45;4.45;;;2.15;;
52642;SDS011;38531;53.296;6.614;2023-03-14T05:33:10;3.35;;;1.55;;
52642;SDS011;38531;53.296;6.614;2023-03-14T05:35:36;4.32;;;1.70;;
52642;SDS011;38531;53.296;6.614;2023-03-14T05:38:02;5.57;;;1.73;;
52642;SDS011;38531;53.296;6.614;2023-03-14T05:40:27;3.22;;;1.55;;
52642;SDS011;38531;53.296;6.614;2023-03-14T05:42:53;3.15;;;1.55;;
52642;SDS011;38531;53.296;6.614;2023-03-14T05:45:19;3.40;;;1.30;;
52642;SDS011;38531;53.296;6.614;2023-03-14T05:47:44;2.33;;;1.45;;
52642;SDS011;38531;53.296;6.614;2023-03-14T05:50:10;4.45;;;1.17;;
52642;SDS011;38531;53.296;6.614;2023-03-14T05:52:36;4.95;;;1.50;;
52642;SDS011;38531;53.296;6.614;2023-03-14T05:55:02;3.67;;;1.20;;
52642;SDS011;38531;53.296;6.614;2023-03-14T05:57:28;4.03;;;1.10;;
52642;SDS011;38531;53.296;6.614;2023-03-14T05:59:54;2.53;;;1.02;;
52642;SDS011;38531;53.296;6.614;2023-03-14T06:02:19;4.18;;;1.38;;
52642;SDS011;38531;53.296;6.614;2023-03-14T06:04:45;1.38;;;0.80;;
52642;SDS011;38531;53.296;6.614;2023-03-14T06:07:11;3.10;;;0.90;;
52642;SDS011;38531;53.296;6.614;2023-03-14T06:09:37;2.70;;;1.27;;
52642;SDS011;38531;53.296;6.614;2023-03-14T06:12:03;1.90;;;0.80;;
52642;SDS011;38531;53.296;6.614;2023-03-14T06:14:29;2.78;;;0.80;;
52642;SDS011;38531;53.296;6.614;2023-03-14T06:16:54;1.80;;;0.90;;
52642;SDS011;38531;53.296;6.614;2023-03-14T06:19:20;3.25;;;0.95;;
52642;SDS011;38531;53.296;6.614;2023-03-14T06:21:46;4.25;;;0.80;;
52642;SDS011;38531;53.296;6.614;2023-03-14T06:24:12;0.20;;;0.20;;
52642;SDS011;38531;53.296;6.614;2023-03-14T06:26:37;3.22;;;0.45;;
52642;SDS011;38531;53.296;6.614;2023-03-14T06:29:03;1.90;;;0.20;;
52642;SDS011;38531;53.296;6.614;2023-03-14T06:31:30;4.43;;;0.52;;
52642;SDS011;38531;53.296;6.614;2023-03-14T06:33:56;6.57;;;0.80;;
52642;SDS011;38531;53.296;6.614;2023-03-14T06:36:22;6.85;;;0.65;;
52642;SDS011;38531;53.296;6.614;2023-03-14T06:38:48;12.32;;;1.10;;
52642;SDS011;38531;53.296;6.614;2023-03-14T06:41:14;8.73;;;1.20;;
52642;SDS011;38531;53.296;6.614;2023-03-14T06:43:39;10.25;;;1.00;;
52642;SDS011;38531;53.296;6.614;2023-03-14T06:46:05;14.55;;;1.42;;
52642;SDS011;38531;53.296;6.614;2023-03-14T06:48:31;7.65;;;0.88;;
52642;SDS011;38531;53.296;6.614;2023-03-14T06:50:57;14.48;;;0.95;;
52642;SDS011;38531;53.296;6.614;2023-03-14T06:53:22;15.93;;;0.95;;
52642;SDS011;38531;53.296;6.614;2023-03-14T06:55:48;10.13;;;0.88;;
52642;SDS011;38531;53.296;6.614;2023-03-14T06:58:14;8.02;;;0.60;;
52642;SDS011;38531;53.296;6.614;2023-03-14T07:00:39;11.48;;;0.80;;
52642;SDS011;38531;53.296;6.614;2023-03-14T07:03:05;7.28;;;0.52;;
52642;SDS011;38531;53.296;6.614;2023-03-14T07:05:31;6.22;;;0.60;;
52642;SDS011;38531;53.296;6.614;2023-03-14T07:07:57;2.47;;;0.40;;
52642;SDS011;38531;53.296;6.614;2023-03-14T07:10:23;4.05;;;0.50;;
52642;SDS011;38531;53.296;6.614;2023-03-14T07:12:49;6.47;;;0.52;;
52642;SDS011;38531;53.296;6.614;2023-03-14T07:15:15;3.00;;;0.30;;
52642;SDS011;38531;53.296;6.614;2023-03-14T07:17:41;2.17;;;0.38;;
52642;SDS011;38531;53.296;6.614;2023-03-14T07:20:07;4.28;;;0.30;;
52642;SDS011;38531;53.296;6.614;2023-03-14T07:22:34;3.78;;;0.20;;
52642;SDS011;38531;53.296;6.614;2023-03-14T07:25:00;1.65;;;0.40;;
52642;SDS011;38531;53.296;6.614;2023-03-14T07:27:25;5.40;;;0.50;;
52642;SDS011;38531;53.296;6.614;2023-03-14T07:29:51;1.42;;;0.65;;
52642;SDS011;38531;53.296;6.614;2023-03-14T07:32:17;1.38;;;0.20;;
52642;SDS011;38531;53.296;6.614;2023-03-14T07:34:43;3.38;;;0.40;;
52642;SDS011;38531;53.296;6.614;2023-03-14T07:37:09;1.58;;;0.30;;
52642;SDS011;38531;53.296;6.614;2023-03-14T07:39:34;2.92;;;0.30;;
52642;SDS011;38531;53.296;6.614;2023-03-14T07:42:00;3.28;;;0.20;;
52642;SDS011;38531;53.296;6.614;2023-03-14T07:44:29;4.65;;;0.30;;
52642;SDS011;38531;53.296;6.614;2023-03-14T07:46:58;1.80;;;0.30;;
52642;SDS011;38531;53.296;6.614;2023-03-14T07:49:23;0.40;;;0.20;;
52642;SDS011;38531;53.296;6.614;2023-03-14T07:51:49;1.13;;;0.30;;
52642;SDS011;38531;53.296;6.614;2023-03-14T07:54:15;3.83;;;0.43;;
52642;SDS011;38531;53.296;6.614;2023-03-14T07:56:41;5.53;;;0.30;;
52642;SDS011;38531;53.296;6.614;2023-03-14T07:59:07;3.10;;;0.40;;
52642;SDS011;38531;53.296;6.614;2023-03-14T08:01:33;0.43;;;0.20;;
52642;SDS011;38531;53.296;6.614;2023-03-14T08:03:58;7.05;;;0.40;;
52642;SDS011;38531;53.296;6.614;2023-03-14T08:06:24;2.92;;;0.20;;
52642;SDS011;38531;53.296;6.614;2023-03-14T08:08:50;2.10;;;0.38;;
52642;SDS011;38531;53.296;6.614;2023-03-14T08:11:16;5.60;;;0.30;;
52642;SDS011;38531;53.296;6.614;2023-03-14T08:13:42;1.13;;;0.30;;
52642;SDS011;38531;53.296;6.614;2023-03-14T08:16:14;3.80;;;0.40;;
52642;SDS011;38531;53.296;6.614;2023-03-14T08:18:41;1.52;;;0.30;;
52642;SDS011;38531;53.296;6.614;2023-03-14T08:21:07;2.25;;;0.75;;
52642;SDS011;38531;53.296;6.614;2023-03-14T08:23:36;2.85;;;0.52;;
52642;SDS011;38531;53.296;6.614;2023-03-14T08:26:02;6.07;;;0.32;;
52642;SDS011;38531;53.296;6.614;2023-03-14T08:28:34;4.50;;;0.50;;
52642;SDS011;38531;53.296;6.614;2023-03-14T08:31:00;7.63;;;0.50;;
52642;SDS011;38531;53.296;6.614;2023-03-14T08:33:28;15.50;;;0.57;;
52642;SDS011;38531;53.296;6.614;2023-03-14T08:35:55;11.88;;;1.35;;
52642;SDS011;38531;53.296;6.614;2023-03-14T08:38:23;7.07;;;0.38;;
52642;SDS011;38531;53.296;6.614;2023-03-14T08:40:54;3.22;;;0.88;;
52642;SDS011;38531;53.296;6.614;2023-03-14T08:43:27;3.83;;;0.60;;
52642;SDS011;38531;53.296;6.614;2023-03-14T08:45:53;6.78;;;0.77;;
52642;SDS011;38531;53.296;6.614;2023-03-14T08:48:23;7.32;;;1.33;;
52642;SDS011;38531;53.296;6.614;2023-03-14T08:50:49;5.20;;;0.68;;
52642;SDS011;38531;53.296;6.614;2023-03-14T08:53:15;10.77;;;1.02;;
52642;SDS011;38531;53.296;6.614;2023-03-14T08:55:46;5.55;;;0.90;;
52642;SDS011;38531;53.296;6.614;2023-03-14T08:58:11;10.55;;;1.38;;
52642;SDS011;38531;53.296;6.614;2023-03-14T09:00:37;8.02;;;1.05;;
52642;SDS011;38531;53.296;6.614;2023-03-14T09:03:05;12.45;;;1.23;;
52642;SDS011;38531;53.296;6.614;2023-03-14T09:05:34;7.25;;;0.68;;
52642;SDS011;38531;53.296;6.614;2023-03-14T09:08:00;9.90;;;1.52;;
52642;SDS011;38531;53.296;6.614;2023-03-14T09:10:28;12.35;;;1.05;;
52642;SDS011;38531;53.296;6.614;2023-03-14T09:12:54;11.68;;;1.00;;
52642;SDS011;38531;53.296;6.614;2023-03-14T09:15:20;10.32;;;0.90;;
52642;SDS011;38531;53.296;6.614;2023-03-14T09:17:47;15.90;;;2.95;;
52642;SDS011;38531;53.296;6.614;2023-03-14T09:20:13;13.23;;;1.10;;
52642;SDS011;38531;53.296;6.614;2023-03-14T09:22:39;11.23;;;1.20;;
52642;SDS011;38531;53.296;6.614;2023-03-14T09:25:05;12.40;;;1.00;;
52642;SDS011;38531;53.296;6.614;2023-03-14T09:27:34;5.38;;;0.80;;
52642;SDS011;38531;53.296;6.614;2023-03-14T09:30:08;11.90;;;1.65;;
52642;SDS011;38531;53.296;6.614;2023-03-14T09:32:35;7.82;;;1.00;;
52642;SDS011;38531;53.296;6.614;2023-03-14T09:35:00;11.38;;;1.30;;
52642;SDS011;38531;53.296;6.614;2023-03-14T09:37:26;10.40;;;1.52;;
52642;SDS011;38531;53.296;6.614;2023-03-14T09:39:52;10.82;;;1.30;;
52642;SDS011;38531;53.296;6.614;2023-03-14T09:42:18;13.15;;;1.45;;
52642;SDS011;38531;53.296;6.614;2023-03-14T09:44:55;14.23;;;1.20;;
52642;SDS011;38531;53.296;6.614;2023-03-14T09:47:24;17.73;;;1.73;;
52642;SDS011;38531;53.296;6.614;2023-03-14T09:49:51;9.50;;;1.20;;
52642;SDS011;38531;53.296;6.614;2023-03-14T09:52:22;14.60;;;1.77;;
52642;SDS011;38531;53.296;6.614;2023-03-14T09:54:54;8.82;;;1.45;;
52642;SDS011;38531;53.296;6.614;2023-03-14T09:57:32;9.00;;;1.00;;
52642;SDS011;38531;53.296;6.614;2023-03-14T10:00:02;12.75;;;1.73;;
52642;SDS011;38531;53.296;6.614;2023-03-14T10:02:38;11.35;;;1.67;;
52642;SDS011;38531;53.296;6.614;2023-03-14T10:08:48;16.92;;;1.52;;
52642;SDS011;38531;53.296;6.614;2023-03-14T10:11:17;10.85;;;1.05;;
52642;SDS011;38531;53.296;6.614;2023-03-14T10:16:30;16.92;;;1.30;;
52642;SDS011;38531;53.296;6.614;2023-03-14T10:19:02;12.43;;;1.38;;
52642;SDS011;38531;53.296;6.614;2023-03-14T10:21:30;14.23;;;2.00;;
52642;SDS011;38531;53.296;6.614;2023-03-14T10:26:51;13.45;;;2.03;;
52642;SDS011;38531;53.296;6.614;2023-03-14T10:29:29;11.05;;;0.95;;
52642;SDS011;38531;53.296;6.614;2023-03-14T10:34:44;4.95;;;0.90;;
52642;SDS011;38531;53.296;6.614;2023-03-14T10:37:24;8.07;;;0.90;;
52642;SDS011;38531;53.296;6.614;2023-03-14T10:39:53;12.50;;;1.27;;
52642;SDS011;38531;53.296;6.614;2023-03-14T10:42:48;8.82;;;0.80;;
52642;SDS011;38531;53.296;6.614;2023-03-14T10:48:22;5.13;;;0.95;;
52642;SDS011;38531;53.296;6.614;2023-03-14T10:51:03;8.55;;;1.20;;
52642;SDS011;38531;53.296;6.614;2023-03-14T10:53:38;5.80;;;1.45;;
52642;SDS011;38531;53.296;6.614;2023-03-14T10:56:07;5.85;;;0.70;;
52642;SDS011;38531;53.296;6.614;2023-03-14T10:58:49;6.65;;;1.27;;
52642;SDS011;38531;53.296;6.614;2023-03-14T11:07:14;9.07;;;0.50;;
52642;SDS011;38531;53.296;6.614;2023-03-14T11:15:40;7.80;;;0.80;;
52642;SDS011;38531;53.296;6.614;2023-03-14T11:26:50;4.68;;;0.45;;
52642;SDS011;38531;53.296;6.614;2023-03-14T11:29:55;5.53;;;0.50;;
52642;SDS011;38531;53.296;6.614;2023-03-14T11:32:46;2.33;;;0.55;;
52642;SDS011;38531;53.296;6.614;2023-03-14T11:35:59;6.15;;;0.40;;
52642;SDS011;38531;53.296;6.614;2023-03-14T11:41:16;7.43;;;0.93;;
52642;SDS011;38531;53.296;6.614;2023-03-14T11:43:48;3.05;;;0.40;;
52642;SDS011;38531;53.296;6.614;2023-03-14T11:46:29;8.63;;;0.68;;
52642;SDS011;38531;53.296;6.614;2023-03-14T11:52:22;3.47;;;0.80;;
52642;SDS011;38531;53.296;6.614;2023-03-14T11:55:05;5.95;;;0.77;;
52642;SDS011;38531;53.296;6.614;2023-03-14T11:57:38;4.18;;;0.80;;
52642;SDS011;38531;53.296;6.614;2023-03-14T12:00:13;8.82;;;0.85;;
52642;SDS011;38531;53.296;6.614;2023-03-14T12:02:47;7.28;;;0.60;;
52642;SDS011;38531;53.296;6.614;2023-03-14T12:11:27;5.97;;;1.13;;
52642;SDS011;38531;53.296;6.614;2023-03-14T12:14:15;6.90;;;1.13;;
52642;SDS011;38531;53.296;6.614;2023-03-14T12:16:43;4.43;;;0.75;;
52642;SDS011;38531;53.296;6.614;2023-03-14T12:19:14;5.53;;;0.70;;
52642;SDS011;38531;53.296;6.614;2023-03-14T12:21:50;5.18;;;1.00;;
52642;SDS011;38531;53.296;6.614;2023-03-14T12:24:33;7.38;;;1.00;;
52642;SDS011;38531;53.296;6.614;2023-03-14T12:27:02;10.05;;;1.25;;
52642;SDS011;38531;53.296;6.614;2023-03-14T12:29:30;12.57;;;1.35;;
52642;SDS011;38531;53.296;6.614;2023-03-14T12:34:46;7.72;;;0.98;;
52642;SDS011;38531;53.296;6.614;2023-03-14T12:45:32;7.65;;;0.80;;
52642;SDS011;38531;53.296;6.614;2023-03-14T12:48:22;7.38;;;0.90;;
52642;SDS011;38531;53.296;6.614;2023-03-14T12:50:53;3.83;;;0.60;;
52642;SDS011;38531;53.296;6.614;2023-03-14T12:56:46;8.88;;;0.60;;
52642;SDS011;38531;53.296;6.614;2023-03-14T12:59:36;5.97;;;0.75;;
52642;SDS011;38531;53.296;6.614;2023-03-14T13:04:32;3.95;;;0.50;;
52642;SDS011;38531;53.296;6.614;2023-03-14T13:12:39;7.35;;;0.55;;
52642;SDS011;38531;53.296;6.614;2023-03-14T13:15:32;3.83;;;0.50;;
52642;SDS011;38531;53.296;6.614;2023-03-14T13:18:10;5.70;;;0.70;;
52642;SDS011;38531;53.296;6.614;2023-03-14T13:20:48;6.47;;;1.08;;
52642;SDS011;38531;53.296;6.614;2023-03-14T13:23:26;3.33;;;0.63;;
52642;SDS011;38531;53.296;6.614;2023-03-14T13:25:57;4.25;;;0.60;;
52642;SDS011;38531;53.296;6.614;2023-03-14T13:28:24;3.72;;;0.40;;
52642;SDS011;38531;53.296;6.614;2023-03-14T13:30:57;3.83;;;0.52;;
52642;SDS011;38531;53.296;6.614;2023-03-14T13:33:25;2.10;;;0.43;;
52642;SDS011;38531;53.296;6.614;2023-03-14T13:35:56;1.25;;;0.40;;
52642;SDS011;38531;53.296;6.614;2023-03-14T13:38:24;8.82;;;1.10;;
52642;SDS011;38531;53.296;6.614;2023-03-14T13:40:53;3.47;;;0.55;;
52642;SDS011;38531;53.296;6.614;2023-03-14T13:43:31;6.82;;;1.05;;
52642;SDS011;38531;53.296;6.614;2023-03-14T13:46:10;5.03;;;0.90;;
52642;SDS011;38531;53.296;6.614;2023-03-14T13:48:58;5.88;;;0.55;;
52642;SDS011;38531;53.296;6.614;2023-03-14T13:51:26;7.03;;;0.73;;
52642;SDS011;38531;53.296;6.614;2023-03-14T13:53:57;7.00;;;0.60;;
52642;SDS011;38531;53.296;6.614;2023-03-14T13:56:26;5.75;;;0.50;;
52642;SDS011;38531;53.296;6.614;2023-03-14T13:58:53;7.57;;;0.70;;
52642;SDS011;38531;53.296;6.614;2023-03-14T14:01:23;2.83;;;0.57;;
52642;SDS011;38531;53.296;6.614;2023-03-14T14:03:53;6.63;;;0.70;;
52642;SDS011;38531;53.296;6.614;2023-03-14T14:06:31;2.47;;;0.52;;
52642;SDS011;38531;53.296;6.614;2023-03-14T14:09:02;10.18;;;0.80;;
52642;SDS011;38531;53.296;6.614;2023-03-14T14:11:42;10.20;;;0.93;;
52642;SDS011;38531;53.296;6.614;2023-03-14T14:14:27;5.28;;;0.50;;
52642;SDS011;38531;53.296;6.614;2023-03-14T14:17:01;10.45;;;0.40;;
52642;SDS011;38531;53.296;6.614;2023-03-14T14:19:30;6.15;;;0.68;;
52642;SDS011;38531;53.296;6.614;2023-03-14T14:21:59;2.55;;;0.65;;
52642;SDS011;38531;53.296;6.614;2023-03-14T14:24:28;6.82;;;0.70;;
52642;SDS011;38531;53.296;6.614;2023-03-14T14:27:00;2.88;;;0.50;;
52642;SDS011;38531;53.296;6.614;2023-03-14T14:29:33;2.90;;;0.40;;
52642;SDS011;38531;53.296;6.614;2023-03-14T14:32:00;3.65;;;0.35;;
52642;SDS011;38531;53.296;6.614;2023-03-14T14:34:27;3.75;;;0.70;;
52642;SDS011;38531;53.296;6.614;2023-03-14T14:36:53;4.38;;;0.68;;
52642;SDS011;38531;53.296;6.614;2023-03-14T14:39:20;6.43;;;0.60;;
52642;SDS011;38531;53.296;6.614;2023-03-14T14:41:49;8.05;;;0.75;;
52642;SDS011;38531;53.296;6.614;2023-03-14T14:44:17;5.72;;;0.60;;
52642;SDS011;38531;53.296;6.614;2023-03-14T14:46:52;4.63;;;0.63;;
52642;SDS011;38531;53.296;6.614;2023-03-14T14:49:19;4.70;;;0.50;;
52642;SDS011;38531;53.296;6.614;2023-03-14T14:51:49;4.20;;;0.50;;
52642;SDS011;38531;53.296;6.614;2023-03-14T14:54:32;8.18;;;0.70;;
52642;SDS011;38531;53.296;6.614;2023-03-14T14:57:02;4.65;;;0.60;;
52642;SDS011;38531;53.296;6.614;2023-03-14T14:59:30;2.63;;;0.43;;
52642;SDS011;38531;53.296;6.614;2023-03-14T15:01:57;11.10;;;0.80;;
52642;SDS011;38531;53.296;6.614;2023-03-14T15:04:26;5.72;;;0.50;;
52642;SDS011;38531;53.296;6.614;2023-03-14T15:06:54;6.07;;;0.40;;
52642;SDS011;38531;53.296;6.614;2023-03-14T15:09:20;4.30;;;0.52;;
52642;SDS011;38531;53.296;6.614;2023-03-14T15:11:46;4.68;;;0.63;;
52642;SDS011;38531;53.296;6.614;2023-03-14T15:14:13;1.35;;;0.50;;
52642;SDS011;38531;53.296;6.614;2023-03-14T15:16:39;4.85;;;1.10;;
52642;SDS011;38531;53.296;6.614;2023-03-14T15:19:15;4.78;;;0.60;;
52642;SDS011;38531;53.296;6.614;2023-03-14T15:21:51;12.98;;;0.70;;
52642;SDS011;38531;53.296;6.614;2023-03-14T15:24:20;3.60;;;0.50;;
52642;SDS011;38531;53.296;6.614;2023-03-14T15:26:49;7.85;;;1.02;;
52642;SDS011;38531;53.296;6.614;2023-03-14T15:29:15;4.65;;;0.90;;
52642;SDS011;38531;53.296;6.614;2023-03-14T15:31:42;3.55;;;0.60;;
52642;SDS011;38531;53.296;6.614;2023-03-14T15:34:09;5.57;;;0.45;;
52642;SDS011;38531;53.296;6.614;2023-03-14T15:36:35;5.10;;;0.68;;
52642;SDS011;38531;53.296;6.614;2023-03-14T15:39:03;1.67;;;0.50;;
52642;SDS011;38531;53.296;6.614;2023-03-14T15:41:30;4.38;;;0.40;;
52642;SDS011;38531;53.296;6.614;2023-03-14T15:43:57;5.10;;;0.70;;
52642;SDS011;38531;53.296;6.614;2023-03-14T15:46:22;2.85;;;0.80;;
52642;SDS011;38531;53.296;6.614;2023-03-14T15:48:49;5.47;;;1.13;;
52642;SDS011;38531;53.296;6.614;2023-03-14T15:51:18;3.33;;;0.80;;
52642;SDS011;38531;53.296;6.614;2023-03-14T15:53:44;3.53;;;0.60;;
52642;SDS011;38531;53.296;6.614;2023-03-14T15:56:14;0.85;;;0.22;;
52642;SDS011;38531;53.296;6.614;2023-03-14T15:58:42;7.45;;;0.60;;
52642;SDS011;38531;53.296;6.614;2023-03-14T16:01:12;5.82;;;0.60;;
52642;SDS011;38531;53.296;6.614;2023-03-14T16:03:38;5.05;;;0.63;;
52642;SDS011;38531;53.296;6.614;2023-03-14T16:06:05;4.50;;;0.57;;
52642;SDS011;38531;53.296;6.614;2023-03-14T16:08:31;6.25;;;0.52;;
52642;SDS011;38531;53.296;6.614;2023-03-14T16:10:59;4.03;;;0.60;;
52642;SDS011;38531;53.296;6.614;2023-03-14T16:13:25;4.63;;;0.60;;